<?xml version="1.0" encoding="UTF-8" standalone="no" ?>
<gpx xmlns="http://www.topografix.com/GPX/1/1" xmlns:xsi="http://www.w3.org/2001/XMLSchema-instance" xsi:schemaLocation="http://www.topografix.com/GPX/1/1 http://www.topografix.com/GPX/1/1/gpx.xsd" version="1.1" creator="VisuGPX - https://www.visugpx.com">
  <metadata>
    <name>Mazières-en-Mauges Ribou</name>
  </metadata>
  <trk>
    <name><![CDATA[13817229-Boucle]]></name>
    <trkseg>
      <trkpt lat="47.03168" lon="-0.83018">
        <ele>87</ele>
        <time>2021-11-02T10:57:15Z</time>
      </trkpt>
      <trkpt lat="47.03279" lon="-0.83068">
        <ele>86</ele>
        <time>2021-11-02T10:59:50Z</time>
      </trkpt>
      <trkpt lat="47.03282" lon="-0.83112">
        <ele>87</ele>
        <time>2021-11-02T11:00:30Z</time>
      </trkpt>
      <trkpt lat="47.0337" lon="-0.83144">
        <ele>85</ele>
        <time>2021-11-02T11:02:31Z</time>
      </trkpt>
      <trkpt lat="47.03424" lon="-0.83241">
        <ele>86</ele>
        <time>2021-11-02T11:04:25Z</time>
      </trkpt>
      <trkpt lat="47.03436" lon="-0.83311">
        <ele>87</ele>
        <time>2021-11-02T11:05:31Z</time>
      </trkpt>
      <trkpt lat="47.03488" lon="-0.83342">
        <ele>86</ele>
        <time>2021-11-02T11:06:46Z</time>
      </trkpt>
      <trkpt lat="47.03523" lon="-0.83417">
        <ele>86</ele>
        <time>2021-11-02T11:08:08Z</time>
      </trkpt>
      <trkpt lat="47.03579" lon="-0.83506">
        <ele>86</ele>
        <time>2021-11-02T11:09:58Z</time>
      </trkpt>
      <trkpt lat="47.03552" lon="-0.83551">
        <ele>86</ele>
        <time>2021-11-02T11:10:53Z</time>
      </trkpt>
      <trkpt lat="47.03531" lon="-0.83642">
        <ele>86</ele>
        <time>2021-11-02T11:12:20Z</time>
      </trkpt>
      <trkpt lat="47.03492" lon="-0.83673">
        <ele>87</ele>
        <time>2021-11-02T11:13:20Z</time>
      </trkpt>
      <trkpt lat="47.03465" lon="-0.83673">
        <ele>87</ele>
        <time>2021-11-02T11:13:56Z</time>
      </trkpt>
      <trkpt lat="47.03444" lon="-0.837">
        <ele>87</ele>
        <time>2021-11-02T11:14:33Z</time>
      </trkpt>
      <trkpt lat="47.03264" lon="-0.8377">
        <ele>88</ele>
        <time>2021-11-02T11:18:41Z</time>
      </trkpt>
      <trkpt lat="47.03229" lon="-0.83782">
        <ele>89</ele>
        <time>2021-11-02T11:19:29Z</time>
      </trkpt>
      <trkpt lat="47.03215" lon="-0.83824">
        <ele>87</ele>
        <time>2021-11-02T11:20:12Z</time>
      </trkpt>
      <trkpt lat="47.03171" lon="-0.83906">
        <ele>85</ele>
        <time>2021-11-02T11:21:47Z</time>
      </trkpt>
      <trkpt lat="47.0314" lon="-0.84009">
        <ele>88</ele>
        <time>2021-11-02T11:23:29Z</time>
      </trkpt>
      <trkpt lat="47.0312" lon="-0.84094">
        <ele>87</ele>
        <time>2021-11-02T11:24:51Z</time>
      </trkpt>
      <trkpt lat="47.03126" lon="-0.84155">
        <ele>86</ele>
        <time>2021-11-02T11:25:47Z</time>
      </trkpt>
      <trkpt lat="47.0308" lon="-0.84225">
        <ele>85</ele>
        <time>2021-11-02T11:27:15Z</time>
      </trkpt>
      <trkpt lat="47.02977" lon="-0.84201">
        <ele>87</ele>
        <time>2021-11-02T11:29:35Z</time>
      </trkpt>
      <trkpt lat="47.02942" lon="-0.84155">
        <ele>88</ele>
        <time>2021-11-02T11:30:37Z</time>
      </trkpt>
      <trkpt lat="47.0288" lon="-0.84167">
        <ele>89</ele>
        <time>2021-11-02T11:32:01Z</time>
      </trkpt>
      <trkpt lat="47.0283" lon="-0.84237">
        <ele>86</ele>
        <time>2021-11-02T11:33:33Z</time>
      </trkpt>
      <trkpt lat="47.02801" lon="-0.84243">
        <ele>87</ele>
        <time>2021-11-02T11:34:12Z</time>
      </trkpt>
      <trkpt lat="47.02716" lon="-0.84261">
        <ele>90</ele>
        <time>2021-11-02T11:36:07Z</time>
      </trkpt>
      <trkpt lat="47.02648" lon="-0.84273">
        <ele>93</ele>
        <time>2021-11-02T11:37:38Z</time>
      </trkpt>
      <trkpt lat="47.02635" lon="-0.8427">
        <ele>94</ele>
        <time>2021-11-02T11:37:56Z</time>
      </trkpt>
      <trkpt lat="47.02619" lon="-0.84304">
        <ele>92</ele>
        <time>2021-11-02T11:38:33Z</time>
      </trkpt>
      <trkpt lat="47.02561" lon="-0.84425">
        <ele>94</ele>
        <time>2021-11-02T11:40:48Z</time>
      </trkpt>
      <trkpt lat="47.02507" lon="-0.8444">
        <ele>103</ele>
        <time>2021-11-02T11:42:01Z</time>
      </trkpt>
      <trkpt lat="47.02456" lon="-0.84459">
        <ele>105</ele>
        <time>2021-11-02T11:43:11Z</time>
      </trkpt>
      <trkpt lat="47.024" lon="-0.84598">
        <ele>99</ele>
        <time>2021-11-02T11:45:38Z</time>
      </trkpt>
      <trkpt lat="47.02317" lon="-0.8458">
        <ele>107</ele>
        <time>2021-11-02T11:47:30Z</time>
      </trkpt>
      <trkpt lat="47.02307" lon="-0.84375">
        <ele>114</ele>
        <time>2021-11-02T11:50:37Z</time>
      </trkpt>
      <trkpt lat="47.02298" lon="-0.84301">
        <ele>115</ele>
        <time>2021-11-02T11:51:46Z</time>
      </trkpt>
      <trkpt lat="47.02309" lon="-0.84149">
        <ele>117</ele>
        <time>2021-11-02T11:54:05Z</time>
      </trkpt>
      <trkpt lat="47.0229" lon="-0.84031">
        <ele>116</ele>
        <time>2021-11-02T11:55:55Z</time>
      </trkpt>
      <trkpt lat="47.02195" lon="-0.83821">
        <ele>114</ele>
        <time>2021-11-02T11:59:44Z</time>
      </trkpt>
      <trkpt lat="47.02118" lon="-0.83609">
        <ele>114</ele>
        <time>2021-11-02T12:03:23Z</time>
      </trkpt>
      <trkpt lat="47.02112" lon="-0.83572">
        <ele>114</ele>
        <time>2021-11-02T12:03:57Z</time>
      </trkpt>
      <trkpt lat="47.02056" lon="-0.83481">
        <ele>115</ele>
        <time>2021-11-02T12:05:49Z</time>
      </trkpt>
      <trkpt lat="47.02034" lon="-0.83387">
        <ele>117</ele>
        <time>2021-11-02T12:07:19Z</time>
      </trkpt>
      <trkpt lat="47.02032" lon="-0.83296">
        <ele>117</ele>
        <time>2021-11-02T12:08:42Z</time>
      </trkpt>
      <trkpt lat="47.02019" lon="-0.83196">
        <ele>117</ele>
        <time>2021-11-02T12:10:15Z</time>
      </trkpt>
      <trkpt lat="47.0193" lon="-0.82953">
        <ele>110</ele>
        <time>2021-11-02T12:14:26Z</time>
      </trkpt>
      <trkpt lat="47.01972" lon="-0.82793">
        <ele>106</ele>
        <time>2021-11-02T12:17:02Z</time>
      </trkpt>
      <trkpt lat="47.02046" lon="-0.82744">
        <ele>107</ele>
        <time>2021-11-02T12:18:50Z</time>
      </trkpt>
      <trkpt lat="47.02114" lon="-0.82714">
        <ele>108</ele>
        <time>2021-11-02T12:20:25Z</time>
      </trkpt>
      <trkpt lat="47.02152" lon="-0.82677">
        <ele>107</ele>
        <time>2021-11-02T12:21:26Z</time>
      </trkpt>
      <trkpt lat="47.02038" lon="-0.82246">
        <ele>100</ele>
        <time>2021-11-02T12:28:26Z</time>
      </trkpt>
      <trkpt lat="47.02063" lon="-0.82095">
        <ele>97</ele>
        <time>2021-11-02T12:30:48Z</time>
      </trkpt>
      <trkpt lat="47.02125" lon="-0.82134">
        <ele>94</ele>
        <time>2021-11-02T12:32:18Z</time>
      </trkpt>
      <trkpt lat="47.02187" lon="-0.82143">
        <ele>90</ele>
        <time>2021-11-02T12:33:41Z</time>
      </trkpt>
      <trkpt lat="47.02189" lon="-0.82082">
        <ele>92</ele>
        <time>2021-11-02T12:34:36Z</time>
      </trkpt>
      <trkpt lat="47.02222" lon="-0.82064">
        <ele>91</ele>
        <time>2021-11-02T12:35:23Z</time>
      </trkpt>
      <trkpt lat="47.02245" lon="-0.82067">
        <ele>90</ele>
        <time>2021-11-02T12:35:54Z</time>
      </trkpt>
      <trkpt lat="47.02267" lon="-0.81994">
        <ele>91</ele>
        <time>2021-11-02T12:37:07Z</time>
      </trkpt>
      <trkpt lat="47.02327" lon="-0.81961">
        <ele>91</ele>
        <time>2021-11-02T12:38:32Z</time>
      </trkpt>
      <trkpt lat="47.02348" lon="-0.81979">
        <ele>91</ele>
        <time>2021-11-02T12:39:05Z</time>
      </trkpt>
      <trkpt lat="47.02453" lon="-0.81989">
        <ele>90</ele>
        <time>2021-11-02T12:41:25Z</time>
      </trkpt>
      <trkpt lat="47.02458" lon="-0.81985">
        <ele>90</ele>
        <time>2021-11-02T12:41:33Z</time>
      </trkpt>
      <trkpt lat="47.02503" lon="-0.82013">
        <ele>90</ele>
        <time>2021-11-02T12:42:38Z</time>
      </trkpt>
      <trkpt lat="47.02528" lon="-0.82034">
        <ele>91</ele>
        <time>2021-11-02T12:43:16Z</time>
      </trkpt>
      <trkpt lat="47.02588" lon="-0.82064">
        <ele>91</ele>
        <time>2021-11-02T12:44:41Z</time>
      </trkpt>
      <trkpt lat="47.02606" lon="-0.82101">
        <ele>90</ele>
        <time>2021-11-02T12:45:22Z</time>
      </trkpt>
      <trkpt lat="47.02727" lon="-0.82149">
        <ele>89</ele>
        <time>2021-11-02T12:48:10Z</time>
      </trkpt>
      <trkpt lat="47.02818" lon="-0.82158">
        <ele>86</ele>
        <time>2021-11-02T12:50:11Z</time>
      </trkpt>
      <trkpt lat="47.02842" lon="-0.82137">
        <ele>86</ele>
        <time>2021-11-02T12:50:49Z</time>
      </trkpt>
      <trkpt lat="47.02896" lon="-0.82134">
        <ele>86</ele>
        <time>2021-11-02T12:52:01Z</time>
      </trkpt>
      <trkpt lat="47.02942" lon="-0.82164">
        <ele>85</ele>
        <time>2021-11-02T12:53:08Z</time>
      </trkpt>
      <trkpt lat="47.02987" lon="-0.82143">
        <ele>86</ele>
        <time>2021-11-02T12:54:11Z</time>
      </trkpt>
      <trkpt lat="47.03033" lon="-0.82092">
        <ele>88</ele>
        <time>2021-11-02T12:55:28Z</time>
      </trkpt>
      <trkpt lat="47.03058" lon="-0.82113">
        <ele>89</ele>
        <time>2021-11-02T12:56:06Z</time>
      </trkpt>
      <trkpt lat="47.03051" lon="-0.82174">
        <ele>88</ele>
        <time>2021-11-02T12:57:03Z</time>
      </trkpt>
      <trkpt lat="47.03096" lon="-0.82222">
        <ele>88</ele>
        <time>2021-11-02T12:58:17Z</time>
      </trkpt>
      <trkpt lat="47.03136" lon="-0.82252">
        <ele>88</ele>
        <time>2021-11-02T12:59:17Z</time>
      </trkpt>
      <trkpt lat="47.03165" lon="-0.82289">
        <ele>89</ele>
        <time>2021-11-02T13:00:08Z</time>
      </trkpt>
      <trkpt lat="47.03196" lon="-0.82319">
        <ele>90</ele>
        <time>2021-11-02T13:00:58Z</time>
      </trkpt>
      <trkpt lat="47.03233" lon="-0.82404">
        <ele>90</ele>
        <time>2021-11-02T13:02:29Z</time>
      </trkpt>
      <trkpt lat="47.03246" lon="-0.82513">
        <ele>90</ele>
        <time>2021-11-02T13:04:10Z</time>
      </trkpt>
      <trkpt lat="47.03229" lon="-0.8262">
        <ele>89</ele>
        <time>2021-11-02T13:05:50Z</time>
      </trkpt>
      <trkpt lat="47.03213" lon="-0.82695">
        <ele>87</ele>
        <time>2021-11-02T13:07:01Z</time>
      </trkpt>
      <trkpt lat="47.03209" lon="-0.82707">
        <ele>87</ele>
        <time>2021-11-02T13:07:13Z</time>
      </trkpt>
      <trkpt lat="47.03243" lon="-0.82729">
        <ele>87</ele>
        <time>2021-11-02T13:08:03Z</time>
      </trkpt>
      <trkpt lat="47.03258" lon="-0.82756">
        <ele>86</ele>
        <time>2021-11-02T13:08:35Z</time>
      </trkpt>
      <trkpt lat="47.03382" lon="-0.82878">
        <ele>86</ele>
        <time>2021-11-02T13:11:54Z</time>
      </trkpt>
      <trkpt lat="47.03486" lon="-0.83038">
        <ele>88</ele>
        <time>2021-11-02T13:15:15Z</time>
      </trkpt>
      <trkpt lat="47.03548" lon="-0.83057">
        <ele>88</ele>
        <time>2021-11-02T13:16:40Z</time>
      </trkpt>
      <trkpt lat="47.03593" lon="-0.83108">
        <ele>88</ele>
        <time>2021-11-02T13:17:55Z</time>
      </trkpt>
      <trkpt lat="47.03649" lon="-0.83148">
        <ele>86</ele>
        <time>2021-11-02T13:19:19Z</time>
      </trkpt>
      <trkpt lat="47.03713" lon="-0.83151">
        <ele>86</ele>
        <time>2021-11-02T13:20:44Z</time>
      </trkpt>
      <trkpt lat="47.03806" lon="-0.83145">
        <ele>87</ele>
        <time>2021-11-02T13:22:48Z</time>
      </trkpt>
      <trkpt lat="47.03817" lon="-0.82868">
        <ele>87</ele>
        <time>2021-11-02T13:27:01Z</time>
      </trkpt>
      <trkpt lat="47.03763" lon="-0.82698">
        <ele>88</ele>
        <time>2021-11-02T13:29:51Z</time>
      </trkpt>
      <trkpt lat="47.03802" lon="-0.82577">
        <ele>89</ele>
        <time>2021-11-02T13:31:53Z</time>
      </trkpt>
      <trkpt lat="47.03843" lon="-0.82519">
        <ele>89</ele>
        <time>2021-11-02T13:33:09Z</time>
      </trkpt>
      <trkpt lat="47.03928" lon="-0.82477">
        <ele>92</ele>
        <time>2021-11-02T13:35:09Z</time>
      </trkpt>
      <trkpt lat="47.0384" lon="-0.82504">
        <ele>89</ele>
        <time>2021-11-02T13:37:09Z</time>
      </trkpt>
      <trkpt lat="47.03756" lon="-0.82673">
        <ele>89</ele>
        <time>2021-11-02T13:40:19Z</time>
      </trkpt>
      <trkpt lat="47.03805" lon="-0.82864">
        <ele>87</ele>
        <time>2021-11-02T13:43:24Z</time>
      </trkpt>
      <trkpt lat="47.03794" lon="-0.83111">
        <ele>87</ele>
        <time>2021-11-02T13:47:10Z</time>
      </trkpt>
      <trkpt lat="47.03721" lon="-0.83132">
        <ele>87</ele>
        <time>2021-11-02T13:48:49Z</time>
      </trkpt>
      <trkpt lat="47.03654" lon="-0.83141">
        <ele>86</ele>
        <time>2021-11-02T13:50:19Z</time>
      </trkpt>
      <trkpt lat="47.03593" lon="-0.83074">
        <ele>89</ele>
        <time>2021-11-02T13:52:00Z</time>
      </trkpt>
      <trkpt lat="47.03552" lon="-0.83054">
        <ele>89</ele>
        <time>2021-11-02T13:52:58Z</time>
      </trkpt>
      <trkpt lat="47.03555" lon="-0.83042">
        <ele>89</ele>
        <time>2021-11-02T13:53:10Z</time>
      </trkpt>
      <trkpt lat="47.03548" lon="-0.83052">
        <ele>88</ele>
        <time>2021-11-02T13:53:23Z</time>
      </trkpt>
      <trkpt lat="47.03566" lon="-0.83042">
        <ele>89</ele>
        <time>2021-11-02T13:53:48Z</time>
      </trkpt>
      <trkpt lat="47.03563" lon="-0.8304">
        <ele>89</ele>
        <time>2021-11-02T13:53:53Z</time>
      </trkpt>
      <trkpt lat="47.03526" lon="-0.83032">
        <ele>88</ele>
        <time>2021-11-02T13:54:43Z</time>
      </trkpt>
      <trkpt lat="47.03512" lon="-0.82993">
        <ele>89</ele>
        <time>2021-11-02T13:55:23Z</time>
      </trkpt>
      <trkpt lat="47.0348" lon="-0.83003">
        <ele>88</ele>
        <time>2021-11-02T13:56:06Z</time>
      </trkpt>
      <trkpt lat="47.034" lon="-0.82868">
        <ele>87</ele>
        <time>2021-11-02T13:58:49Z</time>
      </trkpt>
      <trkpt lat="47.03324" lon="-0.82791">
        <ele>87</ele>
        <time>2021-11-02T14:00:52Z</time>
      </trkpt>
      <trkpt lat="47.03281" lon="-0.82727">
        <ele>88</ele>
        <time>2021-11-02T14:02:14Z</time>
      </trkpt>
      <trkpt lat="47.03218" lon="-0.82776">
        <ele>85</ele>
        <time>2021-11-02T14:03:49Z</time>
      </trkpt>
      <trkpt lat="47.03205" lon="-0.82801">
        <ele>85</ele>
        <time>2021-11-02T14:04:18Z</time>
      </trkpt>
      <trkpt lat="47.03182" lon="-0.82826">
        <ele>85</ele>
        <time>2021-11-02T14:04:56Z</time>
      </trkpt>
      <trkpt lat="47.03141" lon="-0.82866">
        <ele>86</ele>
        <time>2021-11-02T14:06:02Z</time>
      </trkpt>
      <trkpt lat="47.03109" lon="-0.82901">
        <ele>87</ele>
        <time>2021-11-02T14:06:55Z</time>
      </trkpt>
      <trkpt lat="47.03152" lon="-0.82965">
        <ele>87</ele>
        <time>2021-11-02T14:08:17Z</time>
      </trkpt>
      <trkpt lat="47.03168" lon="-0.83018">
        <ele>87</ele>
        <time>2021-11-02T14:09:09Z</time>
      </trkpt>
    </trkseg>
  </trk>
</gpx>